Time;durP1;ratioP1;P1;durP2;ratioP2;P2;SDS_P1;SDS_P2;PMS_P1;PMS_P2;Temp;Humidity;BMP_temperature;BMP_pressure;BME280_temperature;BME280_humidity;BME280_pressure;Samples;Min_cycle;Max_cycle;Signal;HPM_P1;HPM_P2
2021/05/03 00:02:08;;;;;;;6.70;4.47;;;9.70;95.40;;;;;;5033621;28;20621;-74
2021/05/03 00:04:35;;;;;;;5.97;4.57;;;9.70;95.30;;;;;;5033365;28;20694;-74
2021/05/03 00:07:02;;;;;;;5.22;3.90;;;9.60;95.60;;;;;;5033201;28;20737;-74
2021/05/03 00:09:28;;;;;;;5.22;4.18;;;9.60;96.00;;;;;;5033576;28;20561;-74
2021/05/03 00:11:54;;;;;;;5.80;4.53;;;9.50;96.30;;;;;;5033563;28;20616;-74
2021/05/03 00:14:21;;;;;;;5.80;4.88;;;9.50;96.70;;;;;;5033491;28;20649;-74
2021/05/03 00:16:47;;;;;;;6.65;5.22;;;9.40;97.30;;;;;;5033277;28;20315;-74
2021/05/03 00:19:13;;;;;;;5.55;4.45;;;9.40;97.60;;;;;;5033474;28;20203;-74
2021/05/03 00:21:40;;;;;;;5.35;4.43;;;9.30;97.50;;;;;;5033464;28;20254;-74
2021/05/03 00:24:08;;;;;;;6.45;4.30;;;9.20;97.80;;;;;;5033241;28;20228;-74
2021/05/03 00:26:35;;;;;;;5.70;4.22;;;9.10;97.90;;;;;;5033295;28;20300;-74
2021/05/03 00:29:01;;;;;;;6.13;4.88;;;9.00;98.10;;;;;;5033378;28;20212;-74
2021/05/03 00:31:27;;;;;;;5.07;4.25;;;9.00;98.50;;;;;;5033146;28;20222;-74
2021/05/03 00:33:54;;;;;;;5.22;4.55;;;8.90;98.40;;;;;;5033372;28;20315;-74
2021/05/03 00:36:20;;;;;;;6.10;4.30;;;8.80;98.20;;;;;;5033067;28;20242;-74
2021/05/03 00:38:46;;;;;;;6.43;4.15;;;8.70;98.40;;;;;;5033126;28;20299;-74
2021/05/03 00:41:13;;;;;;;5.13;4.13;;;8.70;98.70;;;;;;5033080;28;20291;-75
2021/05/03 00:43:40;;;;;;;5.50;4.10;;;8.60;98.70;;;;;;5033096;28;20231;-74
2021/05/03 00:46:07;;;;;;;4.68;4.18;;;8.60;98.80;;;;;;5033079;28;20204;-74
2021/05/03 00:48:34;;;;;;;5.95;4.60;;;8.60;98.70;;;;;;5033195;28;20239;-75
2021/05/03 00:51:00;;;;;;;5.15;4.30;;;8.60;99.00;;;;;;5033192;28;20208;-74
2021/05/03 00:53:26;;;;;;;8.80;4.25;;;8.60;99.10;;;;;;5032940;28;20778;-74
2021/05/03 00:55:53;;;;;;;6.43;4.07;;;8.40;99.50;;;;;;5033056;28;20299;-74
2021/05/03 00:58:20;;;;;;;5.68;4.28;;;8.50;99.50;;;;;;5033596;28;20230;-74
2021/05/03 01:00:47;;;;;;;5.15;4.30;;;8.40;99.90;;;;;;5036802;28;20214;-75
2021/05/03 01:03:13;;;;;;;4.53;3.95;;;8.50;99.90;;;;;;5036792;28;20216;-74
2021/05/03 01:05:39;;;;;;;6.07;4.43;;;8.50;99.90;;;;;;5036706;28;20212;-75
2021/05/03 01:08:06;;;;;;;5.97;4.75;;;8.70;99.90;;;;;;5036752;28;20196;-75
2021/05/03 01:10:32;;;;;;;4.82;4.07;;;8.70;99.90;;;;;;5036734;28;20207;-74
2021/05/03 01:12:59;;;;;;;5.38;4.40;;;8.60;99.90;;;;;;5036488;28;20256;-74
2021/05/03 01:15:27;;;;;;;5.45;4.30;;;8.60;99.90;;;;;;5036609;28;20207;-75
2021/05/03 01:17:58;;;;;;;6.82;4.43;;;8.70;99.90;;;;;;5036714;28;20733;-74
2021/05/03 01:20:26;;;;;;;6.10;4.32;;;8.80;99.90;;;;;;5036591;28;20243;-74
2021/05/03 01:22:56;;;;;;;6.75;4.75;;;8.60;99.90;;;;;;5036542;28;20295;-74
2021/05/03 01:25:25;;;;;;;6.93;4.90;;;8.40;99.90;;;;;;5036628;28;20198;-75
2021/05/03 01:27:52;;;;;;;6.75;5.07;;;8.20;99.90;;;;;;5036151;28;20208;-74
2021/05/03 01:30:19;;;;;;;8.05;5.57;;;8.00;99.90;;;;;;5036413;28;20295;-74
2021/05/03 01:32:45;;;;;;;8.27;5.85;;;7.90;99.90;;;;;;5036059;28;20230;-74
2021/05/03 01:35:14;;;;;;;7.75;5.97;;;8.00;99.90;;;;;;5036228;28;20220;-74
2021/05/03 01:37:41;;;;;;;6.97;5.25;;;8.00;99.90;;;;;;5035877;28;20235;-74
2021/05/03 01:40:10;;;;;;;9.32;6.22;;;7.90;99.90;;;;;;5036112;28;20204;-74
2021/05/03 01:42:37;;;;;;;7.35;5.18;;;7.90;99.90;;;;;;5035849;28;20208;-74
2021/05/03 01:45:04;;;;;;;6.53;5.80;;;8.00;99.90;;;;;;5036089;28;20582;-74
2021/05/03 01:47:33;;;;;;;8.43;5.85;;;8.10;99.90;;;;;;5035881;28;20212;-74
2021/05/03 01:49:59;;;;;;;6.47;4.97;;;8.20;99.90;;;;;;5035983;28;20231;-74
2021/05/03 01:52:25;;;;;;;8.95;5.70;;;8.20;99.90;;;;;;5035935;28;20204;-74
2021/05/03 01:54:52;;;;;;;6.60;4.88;;;8.30;99.90;;;;;;5035808;28;20315;-74
2021/05/03 01:57:20;;;;;;;8.75;5.90;;;8.30;99.90;;;;;;5035595;28;20224;-74
2021/05/03 01:59:50;;;;;;;7.05;5.57;;;8.40;99.90;;;;;;5035793;28;20266;-74
2021/05/03 02:02:16;;;;;;;7.70;5.90;;;8.40;99.90;;;;;;5035726;28;20212;-75
2021/05/03 02:04:43;;;;;;;7.60;5.60;;;8.30;99.90;;;;;;5035514;28;20358;-75
2021/05/03 02:07:09;;;;;;;7.18;5.80;;;8.30;99.90;;;;;;5035484;28;20290;-74
2021/05/03 02:09:35;;;;;;;8.27;5.95;;;8.30;99.90;;;;;;5034884;28;20654;-75
2021/05/03 02:12:02;;;;;;;8.32;6.32;;;8.30;99.90;;;;;;5035591;28;20637;-75
2021/05/03 02:14:29;;;;;;;8.88;5.95;;;8.30;99.90;;;;;;5035244;28;20228;-75
2021/05/03 02:16:55;;;;;;;9.20;5.88;;;8.20;99.90;;;;;;5035249;28;20310;-75
2021/05/03 02:19:21;;;;;;;8.30;6.10;;;8.30;99.90;;;;;;5035474;28;20738;-75
2021/05/03 02:21:48;;;;;;;8.80;6.30;;;8.30;99.90;;;;;;5035318;28;20204;-75
2021/05/03 02:24:14;;;;;;;7.95;5.97;;;8.40;99.90;;;;;;5035027;28;20230;-75
2021/05/03 02:26:40;;;;;;;8.73;6.28;;;8.40;99.90;;;;;;5035159;28;20243;-74
2021/05/03 02:29:07;;;;;;;9.00;6.40;;;8.30;99.90;;;;;;5035277;28;20235;-75
2021/05/03 02:31:34;;;;;;;9.50;6.75;;;8.30;99.90;;;;;;5035076;28;20315;-75
2021/05/03 02:34:00;;;;;;;9.13;6.55;;;8.10;99.90;;;;;;5035091;28;20230;-75
2021/05/03 02:36:26;;;;;;;10.98;5.57;;;8.00;99.90;;;;;;5034863;28;20294;-75
2021/05/03 02:38:53;;;;;;;7.22;5.72;;;7.90;99.90;;;;;;5035074;28;20616;-75
2021/05/03 02:41:19;;;;;;;7.65;5.90;;;8.00;99.90;;;;;;5034996;28;20261;-75
2021/05/03 02:43:45;;;;;;;8.07;6.05;;;8.10;99.90;;;;;;5034853;28;20224;-75
2021/05/03 02:46:12;;;;;;;8.30;6.60;;;8.10;99.90;;;;;;5035121;28;20235;-74
2021/05/03 02:48:39;;;;;;;9.73;6.55;;;8.10;99.90;;;;;;5034866;28;20211;-75
2021/05/03 02:51:06;;;;;;;6.60;5.40;;;8.10;99.90;;;;;;5034759;28;20629;-75
2021/05/03 02:53:33;;;;;;;10.20;6.38;;;8.10;99.90;;;;;;5034456;28;20291;-74
2021/05/03 02:55:59;;;;;;;8.75;6.78;;;8.00;99.90;;;;;;5034510;28;20200;-75
2021/05/03 02:58:26;;;;;;;9.38;6.50;;;8.00;99.90;;;;;;5034613;28;20323;-75
2021/05/03 03:00:52;;;;;;;9.20;6.30;;;8.00;99.90;;;;;;5034623;28;20298;-74
2021/05/03 03:03:18;;;;;;;9.50;6.35;;;7.90;99.90;;;;;;5034490;28;20319;-74
2021/05/03 03:05:45;;;;;;;9.15;6.38;;;7.80;99.90;;;;;;5034438;28;20198;-74
2021/05/03 03:08:12;;;;;;;10.80;6.93;;;7.70;99.90;;;;;;5034486;28;20287;-75
2021/05/03 03:10:38;;;;;;;10.30;6.38;;;7.60;99.90;;;;;;5034446;28;20227;-75
2021/05/03 03:13:05;;;;;;;8.23;5.95;;;7.50;99.90;;;;;;5034324;28;20295;-75
2021/05/03 03:15:33;;;;;;;12.98;7.80;;;7.50;99.90;;;;;;5034251;28;20598;-75
2021/05/03 03:18:01;;;;;;;9.10;6.38;;;7.50;99.90;;;;;;5034182;28;20226;-75
2021/05/03 03:20:28;;;;;;;12.20;7.65;;;7.50;99.90;;;;;;5033941;28;20212;-75
2021/05/03 03:22:55;;;;;;;10.27;7.00;;;7.50;99.90;;;;;;5033578;28;20342;-75
2021/05/03 03:25:22;;;;;;;9.75;7.00;;;7.50;99.90;;;;;;5034010;28;20315;-74
2021/05/03 03:27:49;;;;;;;8.75;6.75;;;7.50;99.90;;;;;;5034040;28;20200;-75
2021/05/03 03:30:17;;;;;;;9.73;6.97;;;7.40;99.90;;;;;;5034076;28;20296;-75
2021/05/03 03:32:44;;;;;;;11.85;6.47;;;7.50;99.90;;;;;;5033727;28;20219;-74
2021/05/03 03:35:12;;;;;;;8.85;6.65;;;7.50;99.90;;;;;;5034086;28;20322;-74
2021/05/03 03:37:39;;;;;;;10.73;7.55;;;7.40;99.90;;;;;;5033586;28;20773;-74
2021/05/03 03:40:07;;;;;;;8.63;6.60;;;7.40;99.90;;;;;;5033981;28;20597;-74
2021/05/03 03:42:34;;;;;;;10.48;6.85;;;7.40;99.90;;;;;;5033819;28;20207;-75
2021/05/03 03:45:00;;;;;;;10.50;7.85;;;7.40;99.90;;;;;;5033801;28;20278;-75
2021/05/03 03:47:27;;;;;;;13.80;8.00;;;7.50;99.90;;;;;;5033750;28;20622;-74
2021/05/03 03:49:54;;;;;;;16.55;10.00;;;7.50;99.90;;;;;;5033815;28;20208;-75
2021/05/03 03:52:21;;;;;;;19.60;11.98;;;7.50;99.90;;;;;;5033793;28;20295;-74
2021/05/03 03:54:47;;;;;;;12.50;8.40;;;7.50;99.90;;;;;;5033743;28;20314;-75
2021/05/03 03:57:14;;;;;;;19.70;8.88;;;7.60;99.90;;;;;;5033535;28;20403;-74
2021/05/03 03:59:43;;;;;;;18.10;11.48;;;7.60;99.90;;;;;;5033670;28;20210;-75
2021/05/03 04:02:09;;;;;;;11.95;8.02;;;7.60;99.90;;;;;;5033659;28;20563;-75
2021/05/03 04:04:39;;;;;;;10.27;7.32;;;7.70;99.90;;;;;;5033998;28;20230;-74
2021/05/03 04:07:10;;;;;;;10.02;7.35;;;7.70;99.90;;;;;;5033467;28;20228;-74
2021/05/03 04:09:41;;;;;;;10.73;7.78;;;7.70;99.90;;;;;;5033872;28;20567;-75
2021/05/03 04:12:24;;;;;;;10.35;6.93;;;7.60;99.90;;;;;;5033569;28;20258;-74
2021/05/03 04:25:50;;;;;;;9.77;7.00;;;7.50;99.90;;;;;;5033168;28;20310;-74
2021/05/03 04:28:17;;;;;;;11.52;7.70;;;7.50;99.90;;;;;;5033402;28;20560;-74
2021/05/03 04:30:44;;;;;;;10.20;7.03;;;7.40;99.90;;;;;;5033317;28;20291;-74
2021/05/03 04:33:10;;;;;;;10.60;6.90;;;7.40;99.90;;;;;;5034943;28;20701;-74
2021/05/03 04:35:36;;;;;;;10.25;7.40;;;7.40;99.90;;;;;;5037173;28;20204;-74
2021/05/03 04:38:03;;;;;;;11.68;7.45;;;7.40;99.90;;;;;;5037276;28;20263;-74
2021/05/03 04:40:29;;;;;;;11.60;7.15;;;7.40;99.90;;;;;;5037310;28;20250;-74
2021/05/03 04:42:56;;;;;;;9.57;7.28;;;7.30;99.90;;;;;;5037167;28;20206;-74
2021/05/03 04:45:22;;;;;;;9.48;6.80;;;7.40;99.90;;;;;;5037014;28;20315;-74
2021/05/03 04:47:50;;;;;;;10.57;6.78;;;7.30;99.90;;;;;;5037112;28;20243;-74
2021/05/03 04:50:16;;;;;;;11.40;8.05;;;7.30;99.90;;;;;;5037089;28;20208;-74
2021/05/03 04:52:42;;;;;;;8.35;6.68;;;7.30;99.90;;;;;;5037007;28;20295;-74
2021/05/03 04:55:09;;;;;;;12.32;7.18;;;7.40;99.90;;;;;;5037012;28;20262;-74
2021/05/03 04:57:36;;;;;;;11.30;7.15;;;7.40;99.90;;;;;;5036741;28;20219;-74
2021/05/03 05:00:04;;;;;;;10.90;7.40;;;7.40;99.90;;;;;;5036802;28;20239;-74
2021/05/03 05:02:30;;;;;;;13.45;8.32;;;7.50;99.90;;;;;;5036904;28;20204;-74
2021/05/03 05:04:59;;;;;;;12.30;7.82;;;7.50;99.90;;;;;;5036825;28;20315;-74
2021/05/03 05:07:26;;;;;;;10.73;7.45;;;7.50;99.90;;;;;;5036618;28;20235;-74
2021/05/03 05:09:52;;;;;;;12.65;7.70;;;7.50;99.90;;;;;;5036767;28;20200;-74
2021/05/03 05:12:18;;;;;;;11.10;7.90;;;7.60;99.90;;;;;;5036756;28;20204;-74
2021/05/03 05:14:45;;;;;;;11.50;7.68;;;7.60;99.90;;;;;;5036318;28;20773;-74
2021/05/03 05:17:11;;;;;;;14.05;8.70;;;7.60;99.90;;;;;;5036177;28;20255;-74
2021/05/03 05:19:37;;;;;;;11.10;6.78;;;7.50;99.90;;;;;;5036593;28;20291;-74
2021/05/03 05:22:06;;;;;;;11.57;7.18;;;7.40;99.90;;;;;;5036556;28;20303;-74
2021/05/03 05:24:32;;;;;;;17.15;7.70;;;7.30;99.90;;;;;;5036396;28;20307;-74
2021/05/03 05:26:58;;;;;;;11.95;8.13;;;7.20;99.90;;;;;;5036125;28;20287;-74
2021/05/03 05:29:25;;;;;;;12.52;7.60;;;7.10;99.90;;;;;;5036317;28;20204;-74
2021/05/03 05:31:53;;;;;;;12.32;7.85;;;7.20;99.90;;;;;;5036218;28;20216;-74
2021/05/03 05:34:19;;;;;;;12.07;8.40;;;7.20;99.90;;;;;;5036304;28;20224;-74
2021/05/03 05:36:46;;;;;;;15.82;9.10;;;7.20;99.90;;;;;;5036040;28;20204;-74
2021/05/03 05:39:13;;;;;;;11.70;8.45;;;7.20;99.90;;;;;;5036214;28;20295;-74
2021/05/03 05:41:39;;;;;;;10.60;7.07;;;7.30;99.90;;;;;;5036091;28;20295;-74
2021/05/03 05:44:07;;;;;;;12.50;7.80;;;7.50;99.90;;;;;;5035202;28;20220;-74
2021/05/03 05:46:33;;;;;;;11.35;7.95;;;7.70;99.90;;;;;;5035917;28;20204;-74
2021/05/03 05:49:00;;;;;;;11.25;7.40;;;7.70;99.90;;;;;;5035936;28;20200;-75
2021/05/03 05:51:27;;;;;;;11.65;7.10;;;7.80;99.90;;;;;;5035841;28;20289;-74
2021/05/03 05:53:53;;;;;;;12.95;8.52;;;7.80;99.90;;;;;;5035922;28;20313;-74
2021/05/03 05:56:21;;;;;;;11.35;8.40;;;7.70;99.90;;;;;;5035435;28;20239;-74
2021/05/03 05:58:47;;;;;;;13.25;9.10;;;7.60;99.90;;;;;;5035769;28;20224;-74
2021/05/03 06:01:13;;;;;;;13.00;8.90;;;7.30;99.90;;;;;;5035730;28;20607;-74
2021/05/03 06:03:40;;;;;;;12.48;8.50;;;7.30;99.90;;;;;;5035572;28;20227;-74
2021/05/03 06:06:07;;;;;;;14.77;9.43;;;7.20;99.90;;;;;;5035638;28;20298;-74
2021/05/03 06:08:34;;;;;;;15.45;9.65;;;7.10;99.90;;;;;;5035691;28;20200;-74
2021/05/03 06:11:00;;;;;;;12.50;9.20;;;7.10;99.90;;;;;;5035575;28;20671;-74
2021/05/03 06:13:27;;;;;;;11.95;8.57;;;7.30;99.90;;;;;;5035499;28;20224;-74
2021/05/03 06:15:54;;;;;;;11.23;8.27;;;7.50;99.90;;;;;;5035665;28;20261;-74
2021/05/03 06:18:20;;;;;;;11.00;8.88;;;7.70;99.90;;;;;;5035408;28;20375;-74
2021/05/03 06:20:46;;;;;;;11.27;7.53;;;7.90;99.90;;;;;;5035465;28;20238;-74
2021/05/03 06:23:13;;;;;;;11.65;8.15;;;8.00;99.90;;;;;;5035300;28;20671;-74
2021/05/03 06:25:40;;;;;;;10.80;7.00;;;8.10;99.90;;;;;;5035179;28;20212;-74
2021/05/03 06:28:07;;;;;;;10.57;7.53;;;8.20;99.90;;;;;;5035331;28;20203;-74
2021/05/03 06:30:35;;;;;;;10.02;7.18;;;8.30;99.90;;;;;;5035304;28;20291;-74
2021/05/03 06:33:02;;;;;;;10.52;7.35;;;8.30;99.90;;;;;;5034970;28;20636;-74
2021/05/03 06:35:29;;;;;;;9.77;6.68;;;8.30;99.90;;;;;;5035134;28;20200;-74
2021/05/03 06:37:55;;;;;;;9.30;6.70;;;8.20;99.90;;;;;;5034986;28;20311;-74
2021/05/03 06:40:22;;;;;;;9.10;7.05;;;8.20;99.90;;;;;;5035093;28;20342;-74
2021/05/03 06:42:49;;;;;;;11.77;7.10;;;8.30;99.90;;;;;;5034946;28;20291;-74
2021/05/03 06:45:17;;;;;;;8.73;6.50;;;8.40;99.90;;;;;;5034620;28;20324;-74
2021/05/03 06:47:45;;;;;;;9.00;6.80;;;8.40;99.90;;;;;;5034757;28;20291;-74
2021/05/03 06:50:13;;;;;;;8.82;6.45;;;8.50;99.90;;;;;;5034917;28;20619;-74
2021/05/03 06:52:40;;;;;;;7.97;6.47;;;8.70;99.90;;;;;;5034731;28;20813;-74
2021/05/03 06:55:07;;;;;;;8.98;6.45;;;8.90;99.90;;;;;;5034574;28;20334;-74
2021/05/03 06:57:33;;;;;;;9.13;6.45;;;9.00;99.90;;;;;;5034415;28;20224;-74
2021/05/03 07:00:00;;;;;;;8.60;6.38;;;9.20;99.90;;;;;;5034640;28;20291;-74
2021/05/03 07:02:27;;;;;;;9.82;6.70;;;9.30;99.90;;;;;;5034538;28;20294;-74
2021/05/03 07:04:54;;;;;;;11.63;7.13;;;9.20;99.90;;;;;;5034260;28;20258;-74
2021/05/03 07:07:21;;;;;;;7.80;7.00;;;9.20;99.90;;;;;;5034374;28;20291;-74
2021/05/03 07:09:48;;;;;;;11.32;5.82;;;9.00;99.70;;;;;;5034489;28;20231;-74
2021/05/03 07:12:15;;;;;;;11.55;7.07;;;9.10;99.90;;;;;;5034474;28;20266;-74
2021/05/03 07:14:41;;;;;;;15.32;11.00;;;9.30;99.90;;;;;;5034378;28;20239;-74
2021/05/03 07:17:08;;;;;;;15.38;11.05;;;9.50;99.90;;;;;;5034111;28;20311;-74
2021/05/03 07:19:36;;;;;;;14.30;10.48;;;9.70;99.90;;;;;;5034369;28;20295;-74
2021/05/03 07:22:05;;;;;;;12.90;9.52;;;9.90;99.90;;;;;;5034263;28;20200;-74
2021/05/03 07:24:32;;;;;;;14.27;10.50;;;10.00;99.90;;;;;;5034216;28;20315;-74
2021/05/03 07:26:58;;;;;;;12.65;9.25;;;10.20;99.90;;;;;;5034059;28;20232;-74
2021/05/03 07:29:25;;;;;;;12.75;9.40;;;10.30;99.90;;;;;;5034030;28;20299;-74
2021/05/03 07:31:51;;;;;;;13.95;9.95;;;10.40;99.90;;;;;;5033874;28;20216;-74
2021/05/03 07:34:17;;;;;;;13.18;10.05;;;10.50;99.90;;;;;;5033752;28;20314;-74
2021/05/03 07:36:44;;;;;;;14.38;10.05;;;10.50;99.90;;;;;;5033810;28;20299;-74
2021/05/03 07:39:12;;;;;;;13.35;9.95;;;10.60;99.90;;;;;;5034018;28;20236;-74
2021/05/03 07:41:40;;;;;;;11.60;9.30;;;10.70;99.90;;;;;;5033792;28;20290;-74
2021/05/03 07:44:07;;;;;;;14.80;9.73;;;10.90;99.90;;;;;;5033728;28;20235;-74
2021/05/03 07:46:34;;;;;;;13.63;9.52;;;11.10;99.90;;;;;;5033970;28;20204;-74
2021/05/03 07:49:01;;;;;;;10.60;8.88;;;11.20;99.90;;;;;;5033762;28;20204;-74
2021/05/03 07:51:27;;;;;;;13.27;9.15;;;11.30;99.90;;;;;;5033794;28;20258;-74
2021/05/03 07:53:54;;;;;;;10.35;8.88;;;11.40;99.30;;;;;;5033726;28;20289;-74
2021/05/03 07:56:22;;;;;;;12.00;8.50;;;11.50;99.60;;;;;;5033633;28;20200;-74
2021/05/03 07:58:50;;;;;;;11.40;8.88;;;11.70;98.90;;;;;;5033615;28;20311;-74
2021/05/03 08:01:17;;;;;;;16.65;9.00;;;12.10;98.00;;;;;;5033625;28;20209;-74
2021/05/03 08:03:44;;;;;;;10.15;7.75;;;12.50;96.20;;;;;;5033648;28;20652;-74
2021/05/03 08:06:13;;;;;;;13.63;8.35;;;12.60;95.00;;;;;;5033465;28;20299;-74
2021/05/03 08:08:39;;;;;;;12.40;8.90;;;12.50;95.00;;;;;;5033142;28;20203;-74
2021/05/03 08:11:06;;;;;;;11.50;7.95;;;12.50;94.70;;;;;;5033608;28;20670;-75
2021/05/03 08:13:33;;;;;;;10.70;9.35;;;12.60;95.10;;;;;;5033496;28;20300;-74
2021/05/03 08:16:02;;;;;;;12.38;8.80;;;13.60;94.70;;;;;;5033317;28;20207;-74
2021/05/03 08:18:28;;;;;;;12.98;8.25;;;14.30;91.60;;;;;;5033195;28;20274;-75
2021/05/03 08:20:55;;;;;;;9.90;7.72;;;14.40;90.30;;;;;;5033479;28;20294;-75
2021/05/03 08:23:22;;;;;;;10.10;8.30;;;14.30;89.00;;;;;;5033401;28;20226;-74
2021/05/03 08:25:49;;;;;;;10.05;7.88;;;14.00;87.60;;;;;;5033336;28;20204;-74
2021/05/03 08:28:16;;;;;;;10.25;8.55;;;13.60;87.40;;;;;;5033337;28;20204;-75
2021/05/03 08:30:44;;;;;;;10.18;8.10;;;13.30;86.80;;;;;;5033326;28;20604;-75
2021/05/03 08:33:11;;;;;;;13.63;7.85;;;13.00;89.40;;;;;;5033040;28;20318;-74
2021/05/03 08:35:37;;;;;;;10.73;7.68;;;12.80;91.20;;;;;;5033264;28;20210;-75
2021/05/03 08:38:04;;;;;;;9.05;7.60;;;12.70;92.10;;;;;;5033124;28;20226;-75
2021/05/03 08:40:33;;;;;;;9.40;6.97;;;12.60;93.60;;;;;;5033311;28;20641;-75
2021/05/03 08:43:01;;;;;;;9.30;7.55;;;12.70;94.30;;;;;;5033189;28;20200;-75
2021/05/03 08:45:28;;;;;;;10.10;7.25;;;12.80;92.60;;;;;;5033128;28;20208;-75
2021/05/03 08:48:05;;;;;;;8.90;7.15;;;12.80;91.30;;;;;;5033203;28;20204;-75
2021/05/03 08:50:48;;;;;;;10.90;7.75;;;13.10;91.90;;;;;;5033274;28;20211;-75
2021/05/03 08:53:18;;;;;;;10.70;7.90;;;13.30;90.80;;;;;;5033075;28;20208;-75
2021/05/03 08:55:44;;;;;;;11.50;8.73;;;13.40;89.00;;;;;;5032925;28;20214;-75
2021/05/03 08:58:11;;;;;;;10.48;7.80;;;13.40;86.70;;;;;;5033075;28;20282;-75
2021/05/03 09:00:38;;;;;;;10.25;7.50;;;13.50;86.90;;;;;;5033156;28;20265;-74
2021/05/03 09:03:10;;;;;;;9.73;7.53;;;13.40;85.90;;;;;;5032995;28;20211;-74
2021/05/03 09:05:37;;;;;;;11.15;8.05;;;13.40;86.00;;;;;;5033016;28;20621;-75
2021/05/03 09:08:04;;;;;;;9.98;8.50;;;13.20;84.40;;;;;;5032936;28;20200;-74
2021/05/03 09:10:31;;;;;;;11.77;8.93;;;13.00;83.80;;;;;;5033036;28;20299;-74
2021/05/03 09:13:08;;;;;;;9.10;7.43;;;12.80;85.30;;;;;;5033064;28;20200;-74
2021/05/03 09:15:35;;;;;;;10.90;7.75;;;14.30;84.10;;;;;;5032908;28;20195;-75
2021/05/03 09:18:01;;;;;;;8.52;7.38;;;16.10;78.40;;;;;;5032912;28;20314;-75
2021/05/03 09:20:29;;;;;;;7.90;6.50;;;18.80;71.20;;;;;;5035267;28;20238;-75
2021/05/03 09:22:59;;;;;;;7.63;6.90;;;21.60;58.10;;;;;;5036503;28;20448;-76
2021/05/03 09:25:30;;;;;;;6.83;5.73;;;23.00;49.80;;;;;;5036291;28;20471;-75
2021/05/03 09:28:09;;;;;;;7.70;7.00;;;23.90;46.60;;;;;;5036476;28;20804;-76
2021/05/03 09:30:40;;;;;;;9.17;7.07;;;22.90;44.50;;;;;;5036287;28;21005;-76
2021/05/03 09:33:18;;;;;;;8.67;7.60;;;22.10;45.20;;;;;;5036556;28;20465;-75
2021/05/03 09:35:48;;;;;;;7.93;7.15;;;20.50;46.20;;;;;;5035979;28;20909;-74
2021/05/03 09:38:36;;;;;;;7.85;6.70;;;18.20;46.70;;;;;;5036449;28;20288;-75
2021/05/03 09:41:10;;;;;;;7.32;6.65;;;16.60;51.90;;;;;;5036170;28;20656;-75
2021/05/03 09:43:37;;;;;;;11.57;7.53;;;16.10;55.20;;;;;;5036015;28;20233;-75
2021/05/03 09:46:28;;;;;;;8.50;7.57;;;15.30;55.60;;;;;;5035703;28;20723;-75
2021/05/03 09:48:55;;;;;;;8.30;6.63;;;14.40;59.20;;;;;;5036099;28;20238;-74
2021/05/03 09:51:38;;;;;;;10.25;6.05;;;13.90;61.30;;;;;;5036010;28;20291;-74
2021/05/03 09:54:16;;;;;;;8.02;7.10;;;13.60;62.20;;;;;;5036043;28;20363;-75
2021/05/03 09:56:54;;;;;;;8.00;6.35;;;13.60;65.90;;;;;;5035817;28;20566;-75
2021/05/03 09:59:35;;;;;;;8.77;6.80;;;13.70;70.90;;;;;;5035757;28;20666;-74
2021/05/03 10:02:13;;;;;;;7.40;6.70;;;13.80;67.80;;;;;;5035860;28;20577;-74
2021/05/03 10:04:58;;;;;;;7.15;6.13;;;13.90;66.70;;;;;;5035500;28;20231;-74
2021/05/03 10:07:27;;;;;;;7.85;6.22;;;14.00;70.70;;;;;;5035703;28;20295;-74
2021/05/03 10:10:00;;;;;;;7.10;6.40;;;14.40;69.80;;;;;;5035694;28;20208;-75
2021/05/03 10:12:27;;;;;;;8.00;6.60;;;14.70;67.10;;;;;;5035593;28;20206;-74
2021/05/03 10:14:56;;;;;;;9.75;6.10;;;14.90;65.30;;;;;;5035460;28;20299;-74
2021/05/03 10:17:22;;;;;;;7.80;6.65;;;15.10;64.40;;;;;;5035306;28;20249;-75
2021/05/03 10:19:50;;;;;;;8.68;6.75;;;15.60;63.70;;;;;;5035521;28;20207;-75
2021/05/03 10:22:18;;;;;;;8.43;7.22;;;15.80;61.30;;;;;;5035278;28;20210;-75
2021/05/03 10:24:47;;;;;;;8.52;6.63;;;15.70;60.50;;;;;;5035050;28;20767;-75
2021/05/03 10:27:16;;;;;;;8.23;6.60;;;15.60;60.20;;;;;;5035171;28;20320;-74
2021/05/03 10:29:43;;;;;;;7.55;5.50;;;15.40;58.90;;;;;;5034904;28;20210;-74
2021/05/03 10:32:11;;;;;;;4.80;4.30;;;15.00;56.80;;;;;;5034878;28;20216;-75
2021/05/03 10:34:47;;;;;;;5.95;4.28;;;14.90;54.20;;;;;;5034869;28;20231;-75
2021/05/03 10:37:39;;;;;;;6.50;5.55;;;15.80;53.50;;;;;;5034853;28;20210;-74
2021/05/03 10:40:08;;;;;;;6.72;5.55;;;16.30;52.60;;;;;;5035070;28;20567;-74
2021/05/03 10:42:34;;;;;;;7.05;5.80;;;15.70;54.10;;;;;;5035083;28;20306;-74
2021/05/03 10:45:10;;;;;;;6.63;6.03;;;15.20;56.70;;;;;;5034960;28;20256;-74
2021/05/03 10:47:40;;;;;;;6.35;5.68;;;14.60;55.70;;;;;;5034642;28;20295;-74
2021/05/03 10:50:43;;;;;;;6.88;5.47;;;14.30;57.20;;;;;;5034778;28;20204;-74
2021/05/03 10:53:27;;;;;;;6.78;5.15;;;13.90;57.30;;;;;;5035059;28;20210;-74
2021/05/03 10:55:56;;;;;;;8.57;4.75;;;13.70;58.30;;;;;;5034712;28;20243;-74
2021/05/03 10:58:22;;;;;;;6.70;6.00;;;13.40;57.80;;;;;;5034637;28;20311;-74
2021/05/03 11:00:57;;;;;;;6.70;5.22;;;13.20;57.60;;;;;;5034659;28;20295;-74
2021/05/03 11:03:56;;;;;;;6.00;5.03;;;13.00;58.90;;;;;;5034436;28;20234;-74
2021/05/03 11:06:56;;;;;;;7.22;4.70;;;12.90;61.90;;;;;;5024351;28;20204;-74
2021/05/03 11:09:40;;;;;;;5.03;3.90;;;13.20;63.50;;;;;;5034567;28;20342;-74
2021/05/03 11:12:30;;;;;;;4.78;4.25;;;14.10;57.10;;;;;;5034332;28;20255;-74
2021/05/03 11:15:19;;;;;;;5.47;4.03;;;14.90;56.70;;;;;;5034432;28;20225;-74
2021/05/03 11:18:27;;;;;;;5.72;4.20;;;15.40;54.30;;;;;;5034108;28;20710;-75
2021/05/03 11:21:13;;;;;;;5.60;4.80;;;15.40;53.00;;;;;;5034495;28;20207;-74
2021/05/03 11:23:44;;;;;;;8.25;4.40;;;15.30;52.20;;;;;;5034901;28;20248;-74
2021/05/03 11:26:25;;;;;;;4.80;4.05;;;15.20;53.80;;;;;;5034539;28;20216;-75
2021/05/03 11:29:03;;;;;;;6.65;4.85;;;15.10;53.10;;;;;;5034196;28;20259;-75
2021/05/03 11:31:31;;;;;;;4.60;4.20;;;15.10;52.60;;;;;;5033917;28;20304;-75
2021/05/03 11:34:03;;;;;;;4.90;4.40;;;15.20;53.10;;;;;;5034071;28;20230;-74
2021/05/03 11:36:34;;;;;;;5.07;3.95;;;15.10;53.30;;;;;;5033999;28;20227;-74
2021/05/03 11:39:08;;;;;;;7.10;4.20;;;15.10;53.00;;;;;;5033995;28;20634;-74
2021/05/03 11:41:56;;;;;;;4.80;4.03;;;15.00;54.00;;;;;;5033537;28;20212;-74
2021/05/03 11:44:45;;;;;;;3.90;3.60;;;14.50;51.10;;;;;;5033846;28;20763;-74
2021/05/03 11:47:11;;;;;;;4.90;4.45;;;14.10;53.90;;;;;;5033552;28;20200;-74
2021/05/03 11:49:43;;;;;;;3.97;3.63;;;14.20;54.90;;;;;;5033856;28;20239;-75
2021/05/03 11:52:09;;;;;;;3.45;3.15;;;14.60;56.20;;;;;;5033859;28;20569;-73
2021/05/03 11:54:38;;;;;;;6.60;4.93;;;14.90;51.70;;;;;;5033535;28;20651;-74
2021/05/03 11:57:06;;;;;;;5.32;3.20;;;14.80;50.90;;;;;;5033595;28;20247;-74
2021/05/03 11:59:34;;;;;;;5.10;4.00;;;14.80;52.50;;;;;;5033704;28;20204;-74
2021/05/03 12:02:03;;;;;;;5.18;4.00;;;14.70;50.70;;;;;;5033526;28;20682;-74
2021/05/03 12:04:40;;;;;;;4.45;3.60;;;14.60;51.90;;;;;;5033596;28;20233;-74
2021/05/03 12:07:12;;;;;;;3.92;3.63;;;14.80;53.50;;;;;;5033174;28;20247;-74
2021/05/03 12:09:41;;;;;;;3.15;2.90;;;14.90;49.80;;;;;;5033373;28;20248;-74
2021/05/03 12:12:08;;;;;;;3.85;3.10;;;15.30;50.40;;;;;;5033588;28;20200;-75
2021/05/03 12:14:49;;;;;;;3.60;3.08;;;15.80;50.40;;;;;;5033539;28;20231;-74
2021/05/03 12:17:17;;;;;;;3.90;3.38;;;16.00;47.80;;;;;;5033341;28;20214;-74
2021/05/03 12:19:45;;;;;;;3.90;3.60;;;16.00;48.40;;;;;;5033169;28;20206;-74
2021/05/03 12:22:11;;;;;;;3.40;3.10;;;15.80;46.20;;;;;;5033510;28;20214;-74
2021/05/03 12:24:40;;;;;;;3.40;2.78;;;15.70;46.70;;;;;;5033472;28;20259;-74
2021/05/03 12:27:07;;;;;;;3.22;2.92;;;15.70;47.30;;;;;;5033301;28;20619;-74
2021/05/03 12:29:33;;;;;;;3.53;3.22;;;15.90;46.10;;;;;;5033456;28;20297;-74
2021/05/03 12:32:01;;;;;;;3.10;2.72;;;15.90;48.30;;;;;;5033131;28;20257;-74
2021/05/03 12:34:28;;;;;;;5.25;3.35;;;16.00;46.10;;;;;;5033047;28;20699;-74
2021/05/03 12:37:09;;;;;;;3.88;3.40;;;15.80;47.10;;;;;;5033175;28;20297;-74
2021/05/03 12:39:37;;;;;;;3.17;2.88;;;15.60;47.60;;;;;;5033190;28;20292;-74
2021/05/03 12:42:12;;;;;;;3.13;2.83;;;15.40;47.10;;;;;;5033124;28;20614;-74
2021/05/03 12:44:43;;;;;;;4.57;3.00;;;15.10;47.20;;;;;;5033008;28;20312;-75
2021/05/03 12:47:38;;;;;;;3.67;3.00;;;15.00;47.90;;;;;;5032841;28;20211;-75
2021/05/03 12:50:12;;;;;;;4.78;3.08;;;14.90;48.70;;;;;;5033311;28;20201;-75
2021/05/03 12:52:43;;;;;;;2.67;2.47;;;15.20;50.50;;;;;;5033168;28;20205;-74
2021/05/03 12:55:18;;;;;;;3.10;2.80;;;15.40;48.60;;;;;;5036781;28;20232;-74
2021/05/03 12:57:56;;;;;;;3.60;3.08;;;15.40;47.00;;;;;;5036843;28;20742;-75
2021/05/03 13:00:27;;;;;;;3.40;3.10;;;15.40;47.60;;;;;;5037022;28;20210;-74
2021/05/03 13:03:08;;;;;;;5.97;5.20;;;15.60;49.00;;;;;;5036964;28;20206;-74
2021/05/03 13:05:39;;;;;;;4.88;4.25;;;15.70;48.50;;;;;;5036686;28;20214;-74
2021/05/03 13:08:27;;;;;;;4.72;3.30;;;15.80;50.30;;;;;;5036887;28;20209;-75
2021/05/03 13:11:19;;;;;;;3.35;3.05;;;15.90;49.70;;;;;;5036818;28;20219;-74